createdAt,value
2023-03-02T00:01:03.856Z,33.12
2023-03-02T00:03:33.449Z,28.57
2023-03-02T00:06:00.721Z,28.87
2023-03-02T00:08:28.387Z,34.48
2023-03-02T00:10:56.664Z,31.99
2023-03-02T00:13:24.013Z,33.49
2023-03-02T00:15:50.599Z,31.30
2023-03-02T00:18:17.080Z,33.54
2023-03-02T00:20:43.563Z,30.73
2023-03-02T00:23:10.051Z,30.07
2023-03-02T00:25:36.530Z,31.61
2023-03-02T00:28:03.228Z,31.23
2023-03-02T00:30:29.659Z,33.46
2023-03-02T00:32:56.453Z,38.11
2023-03-02T00:35:22.940Z,34.42
2023-03-02T00:37:49.461Z,29.30
2023-03-02T00:40:16.140Z,31.35
2023-03-02T00:42:42.628Z,35.54
2023-03-02T00:45:09.322Z,36.50
2023-03-02T00:47:36.863Z,29.57
2023-03-02T00:50:05.115Z,34.85
2023-03-02T00:52:32.989Z,30.32
2023-03-02T00:54:59.743Z,32.03
2023-03-02T00:57:26.564Z,33.72
2023-03-02T00:59:53.114Z,30.75
2023-03-02T01:02:21.701Z,32.54
2023-03-02T01:04:48.883Z,28.15
2023-03-02T01:07:17.335Z,31.00
2023-03-02T01:09:44.888Z,34.31
2023-03-02T01:12:12.438Z,35.29
2023-03-02T01:14:40.050Z,31.18
2023-03-02T01:17:07.844Z,31.07
2023-03-02T01:19:34.590Z,32.14
2023-03-02T01:22:01.081Z,31.99
2023-03-02T01:24:27.815Z,34.06
2023-03-02T01:26:55.321Z,37.19
2023-03-02T01:29:22.056Z,31.75
2023-03-02T01:31:48.751Z,33.19
2023-03-02T01:34:15.380Z,33.23
2023-03-02T01:36:45.521Z,32.86
2023-03-02T01:39:15.980Z,33.68
2023-03-02T01:41:44.153Z,33.54
2023-03-02T01:44:29.639Z,30.74
2023-03-02T01:46:56.160Z,33.18
2023-03-02T01:49:22.851Z,33.37
2023-03-02T01:51:49.536Z,34.31
2023-03-02T01:54:22.864Z,34.76
2023-03-02T01:56:52.921Z,34.09
2023-03-02T01:59:22.266Z,30.48
2023-03-02T02:01:54.077Z,30.60
2023-03-02T02:04:21.700Z,31.02
2023-03-02T02:06:51.134Z,32.14
2023-03-02T02:09:20.180Z,29.87
2023-03-02T02:11:47.519Z,30.32
2023-03-02T02:14:14.027Z,30.84
2023-03-02T02:16:41.770Z,30.75
2023-03-02T02:19:26.939Z,32.94
2023-03-02T02:21:53.498Z,29.66
2023-03-02T02:24:26.044Z,29.09
2023-03-02T02:26:54.991Z,32.28
2023-03-02T02:29:25.003Z,31.48
2023-03-02T02:31:57.143Z,31.83
2023-03-02T02:34:28.761Z,28.71
2023-03-02T02:36:59.119Z,30.58
2023-03-02T02:39:29.521Z,34.10
2023-03-02T02:41:59.218Z,30.77
2023-03-02T02:44:26.344Z,28.08
2023-03-02T02:46:52.773Z,31.67
2023-03-02T02:49:28.306Z,31.06
2023-03-02T02:51:55.170Z,31.10
2023-03-02T02:54:23.347Z,34.15
2023-03-02T02:56:51.919Z,35.64
2023-03-02T02:59:28.949Z,36.78
2023-03-02T03:01:56.513Z,30.97
2023-03-02T03:04:28.467Z,27.92
2023-03-02T03:07:03.559Z,30.65
2023-03-02T03:09:30.375Z,26.58
2023-03-02T03:12:09.340Z,31.57
2023-03-02T03:14:39.254Z,32.71
2023-03-02T03:17:12.582Z,31.94
2023-03-02T03:19:41.819Z,28.14
2023-03-02T03:22:11.958Z,29.68
2023-03-02T03:24:40.026Z,28.24
2023-03-02T03:27:07.562Z,30.34
2023-03-02T03:29:34.853Z,27.94
2023-03-02T03:32:01.935Z,27.49
2023-03-02T03:34:30.169Z,28.18
2023-03-02T03:37:01.640Z,24.32
2023-03-02T03:39:31.801Z,25.38
2023-03-02T03:41:58.306Z,25.45
2023-03-02T03:44:24.770Z,22.18
2023-03-02T03:46:51.423Z,22.36
2023-03-02T03:49:18.356Z,21.01
2023-03-02T03:51:44.880Z,23.71
2023-03-02T03:54:11.666Z,24.64
2023-03-02T03:56:39.734Z,24.72
2023-03-02T03:59:07.900Z,22.31
2023-03-02T04:01:37.953Z,25.68
2023-03-02T04:04:06.342Z,21.59
2023-03-02T04:06:33.067Z,21.68
2023-03-02T04:09:04.740Z,23.57
2023-03-02T04:11:32.430Z,24.15
2023-03-02T04:13:58.887Z,23.41
2023-03-02T04:16:25.486Z,23.34
2023-03-02T04:18:52.037Z,21.79
2023-03-02T04:21:19.082Z,22.69
2023-03-02T04:23:45.607Z,20.72
2023-03-02T04:26:12.054Z,21.84
2023-03-02T04:28:38.520Z,25.00
2023-03-02T04:31:05.192Z,22.62
2023-03-02T04:33:31.864Z,24.03
2023-03-02T04:35:58.450Z,25.49
2023-03-02T04:38:29.685Z,22.04
2023-03-02T04:40:57.300Z,23.43
2023-03-02T04:43:25.682Z,21.83
2023-03-02T04:45:53.097Z,23.55
2023-03-02T04:48:19.773Z,20.77
2023-03-02T04:50:46.526Z,22.39
2023-03-02T04:53:13.077Z,22.42
2023-03-02T04:55:39.752Z,23.12
2023-03-02T04:58:07.858Z,21.63
2023-03-02T05:00:35.292Z,21.49
2023-03-02T05:03:02.377Z,24.76
2023-03-02T05:05:29.021Z,22.72
2023-03-02T05:07:55.640Z,20.57
2023-03-02T05:10:23.540Z,21.01
2023-03-02T05:13:02.414Z,23.52
2023-03-02T05:15:31.373Z,21.28
2023-03-02T05:17:58.309Z,23.32
2023-03-02T05:20:30.271Z,23.68
2023-03-02T05:22:58.823Z,22.66
2023-03-02T05:25:26.319Z,22.33
2023-03-02T05:27:53.330Z,22.31
2023-03-02T05:30:20.149Z,22.18
2023-03-02T05:32:46.680Z,22.94
2023-03-02T05:35:14.240Z,22.39
2023-03-02T05:37:42.663Z,22.31
2023-03-02T05:40:09.904Z,21.43
2023-03-02T05:42:36.762Z,22.04
2023-03-02T05:45:04.501Z,23.98
2023-03-02T05:47:30.960Z,25.16
2023-03-02T05:49:57.546Z,23.32
2023-03-02T05:52:24.135Z,23.43
2023-03-02T05:54:50.610Z,25.98
2023-03-02T05:57:17.152Z,23.64
2023-03-02T05:59:46.402Z,24.27
2023-03-02T06:02:13.567Z,23.39
2023-03-02T06:04:43.139Z,24.93
2023-03-02T06:07:13.422Z,23.23
2023-03-02T06:09:40.471Z,23.04
2023-03-02T06:12:08.161Z,22.70
2023-03-02T06:14:35.278Z,24.82
2023-03-02T06:17:01.747Z,24.12
2023-03-02T06:19:28.290Z,23.28
2023-03-02T06:21:54.884Z,23.25
2023-03-02T06:24:21.377Z,26.49
2023-03-02T06:26:47.874Z,22.82
2023-03-02T06:29:14.342Z,25.81
2023-03-02T06:31:40.956Z,25.75
2023-03-02T06:34:07.473Z,24.14
2023-03-02T06:36:34.254Z,24.01
2023-03-02T06:39:00.937Z,23.35
2023-03-02T06:41:27.440Z,24.08
2023-03-02T06:43:53.950Z,23.13
2023-03-02T06:46:20.565Z,23.12
2023-03-02T06:48:47.215Z,23.75
2023-03-02T06:51:13.821Z,25.30
2023-03-02T06:53:40.347Z,23.55
2023-03-02T06:56:07.219Z,25.50
2023-03-02T06:58:34.667Z,25.83
2023-03-02T07:01:01.334Z,25.79
2023-03-02T07:03:27.980Z,22.19
2023-03-02T07:05:54.577Z,24.65
2023-03-02T07:08:21.087Z,24.24
2023-03-02T07:10:47.587Z,26.31
2023-03-02T07:13:14.105Z,24.18
2023-03-02T07:15:40.690Z,24.90
2023-03-02T07:18:07.430Z,24.68
2023-03-02T07:20:34.282Z,24.77
2023-03-02T07:23:00.757Z,23.54
2023-03-02T07:25:27.303Z,24.74
2023-03-02T07:27:53.822Z,19.64
2023-03-02T07:30:21.329Z,21.84
2023-03-02T07:32:48.118Z,23.71
2023-03-02T07:35:14.707Z,23.04
2023-03-02T07:37:41.181Z,24.85
2023-03-02T07:40:08.035Z,23.00
2023-03-02T07:42:34.524Z,25.11
2023-03-02T07:45:01.019Z,22.33
2023-03-02T07:47:27.696Z,23.98
2023-03-02T07:49:54.314Z,25.73
2023-03-02T07:52:20.802Z,23.75
2023-03-02T07:54:47.346Z,23.61
2023-03-02T07:57:16.202Z,26.32
2023-03-02T07:59:43.297Z,26.11
2023-03-02T08:02:14.311Z,23.55
2023-03-02T08:04:40.875Z,23.00
2023-03-02T08:07:07.350Z,21.57
2023-03-02T08:09:33.877Z,22.13
2023-03-02T08:12:00.421Z,23.12
2023-03-02T08:14:26.989Z,22.43
2023-03-02T08:16:53.494Z,22.51
2023-03-02T08:19:20.065Z,23.70
2023-03-02T08:21:46.576Z,22.08
2023-03-02T08:24:13.150Z,24.20
2023-03-02T08:26:39.788Z,24.54
2023-03-02T08:29:07.005Z,21.90
2023-03-02T08:31:33.898Z,20.38
2023-03-02T08:34:00.775Z,22.29
2023-03-02T08:36:27.436Z,19.02
2023-03-02T08:38:54.700Z,18.90
2023-03-02T08:41:22.973Z,20.96
2023-03-02T08:43:50.119Z,20.05
2023-03-02T08:46:18.222Z,19.41
2023-03-02T08:48:45.443Z,17.58
2023-03-02T08:51:13.921Z,18.71
2023-03-02T08:53:42.484Z,21.54
2023-03-02T08:56:25.797Z,20.02
2023-03-02T08:58:53.294Z,19.75
2023-03-02T09:01:21.649Z,17.79
2023-03-02T09:03:48.283Z,17.90
2023-03-02T09:06:14.899Z,20.80
2023-03-02T09:08:41.881Z,19.74
2023-03-02T09:11:08.533Z,19.86
2023-03-02T09:13:35.338Z,18.35
2023-03-02T09:16:01.889Z,18.22
2023-03-02T09:18:29.526Z,20.93
2023-03-02T09:20:56.886Z,18.85
2023-03-02T09:23:24.562Z,17.90
2023-03-02T09:25:51.683Z,18.99
2023-03-02T09:28:18.215Z,19.77
2023-03-02T09:30:52.161Z,17.83
2023-03-02T09:33:19.685Z,17.51
2023-03-02T09:35:47.517Z,18.52
2023-03-02T09:38:16.505Z,19.94
2023-03-02T09:40:52.813Z,19.29
2023-03-02T09:43:28.128Z,20.97
2023-03-02T09:45:57.827Z,20.92
2023-03-02T09:48:33.671Z,19.30
2023-03-02T09:51:06.571Z,18.05
2023-03-02T09:53:59.299Z,17.56
2023-03-02T09:56:26.610Z,18.74
2023-03-02T09:59:02.765Z,19.14
2023-03-02T10:01:42.837Z,19.67
2023-03-02T10:04:18.305Z,20.32
2023-03-02T10:06:45.515Z,20.76
2023-03-02T10:09:12.143Z,20.29
2023-03-02T10:11:50.902Z,20.31
2023-03-02T10:14:25.687Z,18.79
2023-03-02T10:17:12.117Z,20.38
2023-03-02T10:19:44.452Z,22.76
2023-03-02T10:22:17.796Z,21.48
2023-03-02T10:24:59.365Z,21.78
2023-03-02T10:27:39.183Z,21.08
2023-03-02T10:30:14.729Z,19.64
2023-03-02T10:32:51.871Z,20.10
2023-03-02T10:35:21.141Z,20.10
2023-03-02T10:37:48.836Z,21.94
2023-03-02T10:40:41.814Z,20.85
2023-03-02T10:43:15.289Z,21.59
2023-03-02T10:45:41.862Z,21.82
2023-03-02T10:48:13.679Z,22.47
2023-03-02T10:50:42.553Z,23.64
2023-03-02T10:53:17.396Z,20.18
2023-03-02T10:55:45.544Z,19.45
2023-03-02T10:58:30.441Z,20.84
2023-03-02T11:00:58.492Z,19.58
2023-03-02T11:03:25.023Z,20.14
2023-03-02T11:05:51.682Z,20.33
2023-03-02T11:08:23.235Z,21.40
2023-03-02T11:11:00.905Z,21.14
2023-03-02T11:13:30.997Z,20.15
2023-03-02T11:16:02.532Z,20.36
2023-03-02T11:18:33.833Z,20.14
2023-03-02T11:21:10.353Z,20.71
2023-03-02T11:23:55.658Z,20.87
2023-03-02T11:26:25.278Z,17.69
2023-03-02T11:28:51.767Z,19.14
2023-03-02T11:31:41.358Z,20.23
2023-03-02T11:34:22.514Z,18.83
2023-03-02T11:36:58.283Z,19.66
2023-03-02T11:39:29.719Z,18.65
2023-03-02T11:41:56.402Z,19.69
2023-03-02T11:44:24.833Z,17.28
2023-03-02T11:46:56.681Z,19.46
2023-03-02T11:49:35.064Z,19.40
2023-03-02T11:52:02.226Z,18.47
2023-03-02T11:54:36.820Z,19.51
2023-03-02T11:57:04.659Z,19.03
2023-03-02T11:59:33.333Z,21.55
2023-03-02T12:02:01.421Z,18.92
2023-03-02T12:04:28.464Z,18.26
2023-03-02T12:06:55.919Z,21.29
2023-03-02T12:09:22.480Z,20.94
2023-03-02T12:11:55.272Z,20.65
2023-03-02T12:14:35.924Z,21.12
2023-03-02T12:17:22.842Z,20.64
2023-03-02T12:19:51.803Z,17.83
2023-03-02T12:22:31.646Z,19.29
2023-03-02T12:25:01.311Z,17.85
2023-03-02T12:27:34.122Z,20.61
2023-03-02T12:30:00.565Z,21.26
2023-03-02T12:32:30.073Z,21.38
2023-03-02T12:35:00.661Z,20.06
2023-03-02T12:37:27.257Z,19.65
2023-03-02T12:39:53.779Z,19.96
2023-03-02T12:42:40.194Z,18.94
2023-03-02T12:45:25.604Z,18.88
2023-03-02T12:47:59.674Z,17.65
2023-03-02T12:50:30.084Z,17.88
2023-03-02T12:52:58.575Z,17.50
2023-03-02T12:55:25.155Z,20.47
2023-03-02T12:57:53.590Z,18.23
2023-03-02T13:00:22.085Z,18.25
2023-03-02T13:02:50.459Z,18.52
2023-03-02T13:05:19.131Z,18.87
2023-03-02T13:07:45.562Z,19.16
2023-03-02T13:10:20.824Z,18.16
2023-03-02T13:12:47.552Z,19.73
2023-03-02T13:15:16.013Z,18.39
2023-03-02T13:17:43.394Z,18.65
2023-03-02T13:20:13.382Z,18.88
2023-03-02T13:22:40.498Z,18.02
2023-03-02T13:25:08.320Z,19.04
2023-03-02T13:27:34.906Z,17.61
2023-03-02T13:30:20.109Z,19.63
2023-03-02T13:32:46.904Z,20.57
2023-03-02T13:35:20.851Z,19.25
2023-03-02T13:37:47.355Z,19.22
2023-03-02T13:40:23.266Z,19.57
2023-03-02T13:42:49.783Z,21.14
2023-03-02T13:45:25.434Z,18.79
2023-03-02T13:47:52.980Z,18.25
2023-03-02T13:50:21.929Z,20.09
2023-03-02T13:52:49.740Z,20.26
2023-03-02T13:55:18.301Z,17.46
2023-03-02T13:57:45.992Z,19.21
2023-03-02T14:00:35.588Z,20.39
2023-03-02T14:03:02.155Z,18.00
2023-03-02T14:05:33.409Z,20.04
2023-03-02T14:08:00.934Z,19.22
2023-03-02T14:10:27.853Z,19.07
2023-03-02T14:13:00.679Z,19.77
2023-03-02T14:15:27.249Z,16.64
2023-03-02T14:17:53.798Z,17.62
2023-03-02T14:20:20.378Z,18.95
2023-03-02T14:22:47.978Z,16.97
2023-03-02T14:25:14.948Z,19.31
2023-03-02T14:27:43.213Z,17.65
2023-03-02T14:30:15.176Z,16.92
2023-03-02T14:32:41.728Z,16.38
2023-03-02T14:35:11.432Z,17.49
2023-03-02T14:37:41.637Z,15.90
2023-03-02T14:40:20.556Z,17.36
2023-03-02T14:42:47.192Z,16.65
2023-03-02T14:45:13.678Z,18.05
2023-03-02T14:47:40.169Z,17.94
2023-03-02T14:50:06.816Z,18.03
2023-03-02T14:52:41.023Z,16.03
2023-03-02T14:55:37.144Z,17.41
2023-03-02T14:58:05.124Z,18.11
2023-03-02T15:00:31.754Z,18.69
2023-03-02T15:02:59.303Z,17.36
2023-03-02T15:05:25.948Z,19.04
2023-03-02T15:07:53.754Z,18.27
2023-03-02T15:10:22.260Z,18.16
2023-03-02T15:12:49.369Z,17.05
2023-03-02T15:15:16.604Z,18.75
2023-03-02T15:17:43.365Z,19.48
2023-03-02T15:20:13.980Z,18.04
2023-03-02T15:22:40.449Z,17.68
2023-03-02T15:25:07.597Z,18.89
2023-03-02T15:27:34.093Z,20.46
2023-03-02T15:30:00.569Z,18.50
2023-03-02T15:32:27.094Z,17.90
2023-03-02T15:34:53.601Z,18.78
2023-03-02T15:37:20.159Z,19.42
2023-03-02T15:39:47.278Z,18.61
2023-03-02T15:42:14.135Z,19.66
2023-03-02T15:44:40.796Z,18.45
2023-03-02T15:47:07.400Z,18.39
2023-03-02T15:49:34.018Z,18.04
2023-03-02T15:52:00.754Z,18.21
2023-03-02T15:54:28.439Z,17.17
2023-03-02T15:56:55.099Z,19.86
2023-03-02T15:59:26.715Z,16.18
2023-03-02T16:01:54.016Z,18.00
2023-03-02T16:04:20.535Z,17.87
2023-03-02T16:06:47.060Z,15.78
2023-03-02T16:09:13.572Z,14.58
2023-03-02T16:11:40.134Z,15.45
2023-03-02T16:14:06.681Z,16.81
2023-03-02T16:16:33.408Z,16.55
2023-03-02T16:18:59.928Z,15.15
2023-03-02T16:21:28.629Z,15.41
2023-03-02T16:24:02.869Z,13.38
2023-03-02T16:26:29.453Z,15.10
2023-03-02T16:28:55.921Z,14.12
2023-03-02T16:31:26.501Z,14.09
2023-03-02T16:33:54.154Z,14.49
2023-03-02T16:36:21.241Z,13.76
2023-03-02T16:38:48.801Z,14.33
2023-03-02T16:41:20.028Z,13.69
2023-03-02T16:43:48.407Z,12.88
2023-03-02T16:46:16.140Z,12.89
2023-03-02T16:48:42.937Z,12.52
2023-03-02T16:51:09.871Z,12.78
2023-03-02T16:53:36.633Z,14.73
2023-03-02T16:56:03.294Z,12.61
2023-03-02T16:58:29.972Z,12.00
2023-03-02T17:00:56.629Z,14.91
2023-03-02T17:03:23.283Z,13.54
2023-03-02T17:05:50.090Z,12.43
2023-03-02T17:08:17.439Z,13.50
2023-03-02T17:10:44.615Z,13.66
2023-03-02T17:13:12.150Z,14.30
2023-03-02T17:15:39.760Z,14.41
2023-03-02T17:18:06.347Z,15.43
2023-03-02T17:20:33.504Z,16.09
2023-03-02T17:23:00.377Z,14.61
2023-03-02T17:25:26.945Z,15.38
2023-03-02T17:27:53.419Z,14.66
2023-03-02T17:30:20.231Z,13.26
2023-03-02T17:32:46.815Z,15.82
2023-03-02T17:35:13.720Z,14.99
2023-03-02T17:37:40.719Z,14.44
2023-03-02T17:40:08.445Z,15.77
2023-03-02T17:42:34.958Z,14.91
2023-03-02T17:45:01.494Z,13.63
2023-03-02T17:47:28.152Z,15.04
2023-03-02T17:49:56.219Z,13.46
2023-03-02T17:52:22.978Z,13.28
2023-03-02T17:54:49.829Z,12.99
2023-03-02T17:57:21.894Z,13.87
2023-03-02T17:59:50.229Z,14.57
2023-03-02T18:02:19.879Z,13.30
2023-03-02T18:04:46.575Z,12.97
2023-03-02T18:07:13.565Z,12.80
2023-03-02T18:09:40.074Z,13.27
2023-03-02T18:12:07.608Z,12.23
2023-03-02T18:14:34.294Z,12.10
2023-03-02T18:17:02.071Z,12.00
2023-03-02T18:19:28.552Z,11.54
2023-03-02T18:21:55.039Z,13.00
2023-03-02T18:24:21.612Z,13.02
2023-03-02T18:26:48.091Z,12.04
2023-03-02T18:29:14.688Z,13.23
2023-03-02T18:31:41.195Z,12.66
2023-03-02T18:34:07.869Z,13.15
2023-03-02T18:36:34.409Z,12.95
2023-03-02T18:39:00.900Z,13.69
2023-03-02T18:41:27.373Z,12.79
2023-03-02T18:43:53.893Z,12.62
2023-03-02T18:46:24.624Z,12.48
2023-03-02T18:48:52.302Z,11.67
2023-03-02T18:51:19.729Z,12.65
2023-03-02T18:53:46.934Z,12.89
2023-03-02T18:56:14.283Z,12.69
2023-03-02T18:58:41.044Z,14.56
2023-03-02T19:01:08.390Z,12.62
2023-03-02T19:03:37.097Z,13.77
2023-03-02T19:06:03.772Z,13.89
2023-03-02T19:08:30.817Z,14.07
2023-03-02T19:10:57.681Z,13.92
2023-03-02T19:13:25.007Z,14.05
2023-03-02T19:15:54.626Z,13.68
2023-03-02T19:18:23.515Z,13.08
2023-03-02T19:20:51.582Z,12.92
2023-03-02T19:23:18.466Z,12.58
2023-03-02T19:25:45.286Z,13.10
2023-03-02T19:28:12.210Z,11.92
2023-03-02T19:30:40.137Z,12.08
2023-03-02T19:33:07.430Z,13.86
2023-03-02T19:35:34.447Z,12.48
2023-03-02T19:38:01.339Z,13.52
2023-03-02T19:40:30.207Z,11.59
2023-03-02T19:42:56.860Z,12.98
2023-03-02T19:45:29.112Z,12.73
2023-03-02T19:47:57.854Z,11.86
2023-03-02T19:50:25.996Z,12.21
2023-03-02T19:52:54.849Z,11.91
2023-03-02T19:55:22.250Z,12.12
2023-03-02T19:57:56.527Z,11.80
2023-03-02T20:00:24.043Z,12.03
2023-03-02T20:02:50.638Z,12.29
2023-03-02T20:05:17.168Z,12.69
2023-03-02T20:07:43.696Z,10.94
2023-03-02T20:10:11.067Z,11.71
2023-03-02T20:12:37.680Z,13.52
2023-03-02T20:15:05.574Z,13.17
2023-03-02T20:17:32.083Z,11.57
2023-03-02T20:20:01.003Z,12.20
2023-03-02T20:22:27.546Z,11.43
2023-03-02T20:24:54.058Z,11.55
2023-03-02T20:27:21.295Z,10.93
2023-03-02T20:29:48.459Z,10.59
2023-03-02T20:32:15.223Z,11.26
2023-03-02T20:34:43.097Z,10.69
2023-03-02T20:37:10.004Z,10.39
2023-03-02T20:39:38.814Z,10.70
2023-03-02T20:42:06.847Z,10.20
2023-03-02T20:44:34.299Z,9.83
2023-03-02T20:47:02.935Z,8.98
2023-03-02T20:49:31.190Z,9.52
2023-03-02T20:51:59.028Z,8.28
2023-03-02T20:54:27.879Z,8.88
2023-03-02T20:56:54.564Z,9.32
2023-03-02T20:59:21.822Z,8.45
2023-03-02T21:01:48.708Z,9.32
2023-03-02T21:04:15.307Z,8.32
2023-03-02T21:06:41.921Z,8.96
2023-03-02T21:09:09.206Z,8.49
2023-03-02T21:11:36.448Z,9.35
2023-03-02T21:14:03.985Z,8.99
2023-03-02T21:16:37.020Z,9.02
2023-03-02T21:19:05.362Z,9.28
2023-03-02T21:21:41.140Z,8.11
2023-03-02T21:24:09.274Z,9.14
2023-03-02T21:26:36.575Z,9.90
2023-03-02T21:29:03.830Z,8.89
2023-03-02T21:31:30.467Z,9.20
2023-03-02T21:33:58.088Z,8.20
2023-03-02T21:36:24.827Z,8.57
2023-03-02T21:38:52.687Z,9.63
2023-03-02T21:41:19.713Z,10.64
2023-03-02T21:43:47.727Z,9.33
2023-03-02T21:46:15.645Z,9.06
2023-03-02T21:48:42.266Z,8.61
2023-03-02T21:51:10.806Z,9.48
2023-03-02T21:53:37.456Z,9.48
2023-03-02T21:56:04.172Z,9.32
2023-03-02T21:58:30.694Z,9.62
2023-03-02T22:00:57.372Z,10.05
2023-03-02T22:03:23.894Z,10.52
2023-03-02T22:05:50.675Z,10.24
2023-03-02T22:08:18.374Z,9.77
2023-03-02T22:10:46.170Z,9.64
2023-03-02T22:13:24.874Z,9.93
2023-03-02T22:15:58.195Z,10.60
2023-03-02T22:18:27.174Z,10.39
2023-03-02T22:20:53.704Z,9.11
2023-03-02T22:23:26.057Z,11.61
2023-03-02T22:25:54.663Z,10.88
2023-03-02T22:28:22.549Z,11.08
2023-03-02T22:30:50.881Z,11.77
2023-03-02T22:33:19.761Z,11.74
2023-03-02T22:35:46.867Z,11.85
2023-03-02T22:38:33.621Z,11.76
2023-03-02T22:41:00.228Z,11.50
2023-03-02T22:43:31.713Z,11.09
2023-03-02T22:46:15.496Z,11.65
2023-03-02T22:48:44.256Z,12.09
2023-03-02T22:51:18.241Z,10.99
2023-03-02T22:53:52.608Z,12.70
2023-03-02T22:56:28.369Z,10.90
2023-03-02T22:58:55.982Z,11.60
2023-03-02T23:01:37.780Z,10.12
2023-03-02T23:04:13.372Z,10.93
2023-03-02T23:06:45.295Z,11.67
2023-03-02T23:09:13.352Z,10.83
2023-03-02T23:11:41.535Z,9.68
2023-03-02T23:14:16.663Z,9.82
2023-03-02T23:16:43.401Z,10.33
2023-03-02T23:19:10.049Z,10.93
2023-03-02T23:21:39.430Z,10.60
2023-03-02T23:24:07.514Z,10.06
2023-03-02T23:26:34.673Z,9.35
2023-03-02T23:29:01.293Z,10.41
2023-03-02T23:31:27.829Z,10.12
2023-03-02T23:33:54.614Z,10.48
2023-03-02T23:36:21.313Z,10.33
2023-03-02T23:38:48.928Z,9.27
2023-03-02T23:41:15.941Z,8.62
2023-03-02T23:43:42.566Z,10.13
2023-03-02T23:46:13.917Z,9.34
2023-03-02T23:48:41.379Z,8.51
2023-03-02T23:51:08.100Z,8.44
2023-03-02T23:53:34.626Z,7.92
2023-03-02T23:56:01.395Z,7.85
2023-03-02T23:58:27.952Z,7.70
